This is the latest recevied weather packets stored in our database for station/object VANOK. If no packets are shown the sender has not sent any weather packets the latest 10 day(s).
| Time | Temp. | Humidity | Pressure | Rain* | Wind** | Luminosity | Snow |
|---|---|---|---|---|---|---|---|
| 1777556818 | 8.33° C | 74% | 1022.9 hPa | - | - | - | - |
| 1777555618 | 8.89° C | 72% | 1023 hPa | - | - | - | - |
| 1777554418 | 8.89° C | 73% | 1023 hPa | - | - | - | - |
| 1777553218 | 8.89° C | 72% | 1023 hPa | - | - | - | - |
| 1777552018 | 9.44° C | 70% | 1023.1 hPa | - | - | - | - |
| 1777550818 | 10° C | 69% | 1023 hPa | - | - | - | - |
| 1777549618 | 9.44° C | 69% | 1023 hPa | - | - | - | - |
| 1777548418 | 9.44° C | 69% | 1023.1 hPa | - | - | - | - |
| 1777547218 | 10° C | 68% | 1023.2 hPa | - | - | - | - |
| 1777546018 | 9.44° C | 70% | 1023.1 hPa | - | - | - | - |
| 1777544818 | 10° C | 69% | 1023 hPa | - | - | - | - |
| 1777543618 | 9.44° C | 71% | 1022.9 hPa | - | - | - | - |
| 1777542418 | 9.44° C | 73% | 1022.9 hPa | - | - | - | - |
| 1777541218 | 8.89° C | 75% | 1023 hPa | - | - | - | - |
| 1777540017 | 8.89° C | 77% | 1023 hPa | - | - | - | - |
| 1777538817 | 8.33° C | 80% | 1023 hPa | - | - | - | - |
| 1777537617 | 7.78° C | 83% | 1023.1 hPa | - | - | - | - |
| 1777536418 | 7.22° C | 86% | 1023.3 hPa | - | - | - | - |
| 1777535218 | 6.67° C | 88% | 1023.2 hPa | - | - | - | - |
| 1777534017 | 6.67° C | 89% | 1023.1 hPa | - | - | - | - |
| 1777532817 | 6.67° C | 90% | 1023.3 hPa | - | - | - | - |
| 1777531617 | 6.11° C | 92% | 1023.3 hPa | - | - | - | - |
| 1777530417 | 5.56° C | 92% | 1023.4 hPa | - | - | - | - |
| 1777529217 | 6.11° C | 92% | 1023.4 hPa | - | - | - | - |
| 1777528017 | 5.56° C | 92% | 1023.5 hPa | - | - | - | - |
* Rain since midnight (hover to see other rain measurements)
** Current wind speed in m/s (hover to see current wind gust speed)